Time;durP1;ratioP1;P1;durP2;ratioP2;P2;SDS_P1;SDS_P2;PMS_P1;PMS_P2;Temp;Humidity;BMP_temperature;BMP_pressure;BME280_temperature;BME280_humidity;BME280_pressure;Samples;Min_cycle;Max_cycle;Signal;HPM_P1;HPM_P2
2023/07/17 00:01:15;;;;;;;7.90;1.55;;;27.70;43.50;;;;;;6316005;28;20111;-76
2023/07/17 00:04:16;;;;;;;3.83;1.50;;;27.70;43.60;;;;;;6313913;28;20044;-76
2023/07/17 00:07:19;;;;;;;4.18;1.85;;;27.70;43.70;;;;;;6315126;28;20024;-76
2023/07/17 00:10:22;;;;;;;5.57;1.77;;;27.60;43.70;;;;;;6315172;28;20127;-77
2023/07/17 00:13:25;;;;;;;4.38;2.42;;;27.60;43.80;;;;;;6297624;28;20127;-76
2023/07/17 00:16:28;;;;;;;3.88;1.52;;;27.60;43.90;;;;;;6316729;28;20095;-77
2023/07/17 00:19:29;;;;;;;4.05;1.42;;;27.50;43.80;;;;;;6297036;28;20032;-75
2023/07/17 00:22:32;;;;;;;3.75;1.70;;;27.40;43.80;;;;;;6313980;28;20691;-76
2023/07/17 00:25:35;;;;;;;8.57;1.27;;;27.40;44.00;;;;;;6314691;28;20043;-76
2023/07/17 00:28:38;;;;;;;6.95;1.90;;;27.30;44.00;;;;;;6314143;28;20113;-76
2023/07/17 00:31:40;;;;;;;2.25;1.73;;;27.20;44.10;;;;;;6313855;28;20057;-76
2023/07/17 00:34:42;;;;;;;2.47;1.20;;;27.20;44.20;;;;;;6297687;28;20052;-76
2023/07/17 00:37:42;;;;;;;3.13;1.63;;;27.10;44.30;;;;;;6296938;28;20499;-76
2023/07/17 00:40:44;;;;;;;3.10;1.50;;;27.00;44.30;;;;;;6296425;28;20125;-75
2023/07/17 00:43:46;;;;;;;6.53;1.73;;;27.00;44.40;;;;;;6313221;28;20161;-76
2023/07/17 00:46:52;;;;;;;5.20;1.52;;;26.90;44.60;;;;;;6330941;28;20040;-75
2023/07/17 00:49:53;;;;;;;4.35;1.25;;;26.80;44.70;;;;;;6318302;28;20031;-76
2023/07/17 00:52:55;;;;;;;5.45;1.40;;;26.70;44.80;;;;;;6301832;28;20047;-77
2023/07/17 00:55:56;;;;;;;3.95;1.50;;;26.70;44.90;;;;;;6318557;28;20111;-75
2023/07/17 00:58:59;;;;;;;4.30;1.60;;;26.70;45.00;;;;;;6336054;28;20130;-75
2023/07/17 01:02:00;;;;;;;2.55;1.15;;;26.70;45.10;;;;;;6318997;28;20095;-76
2023/07/17 01:05:01;;;;;;;3.47;1.95;;;26.60;45.10;;;;;;6318775;28;20036;-78
2023/07/17 01:08:04;;;;;;;5.60;1.52;;;26.70;45.20;;;;;;6318165;28;20024;-76
2023/07/17 01:11:06;;;;;;;3.20;1.50;;;26.90;45.30;;;;;;6318138;28;20461;-77
2023/07/17 01:14:19;;;;;;;7.63;1.60;;;26.70;45.10;;;;;;6318353;28;20024;-75
2023/07/17 01:17:20;;;;;;;2.55;1.58;;;26.70;45.20;;;;;;6335397;28;20039;-75
2023/07/17 01:20:21;;;;;;;2.13;1.45;;;26.70;45.10;;;;;;6318034;28;20040;-75
2023/07/17 01:23:22;;;;;;;5.82;1.38;;;26.80;45.20;;;;;;6308317;28;20392;-76
2023/07/17 01:26:23;;;;;;;10.60;1.60;;;26.80;45.10;;;;;;6317256;28;20032;-76
2023/07/17 01:29:24;;;;;;;9.13;1.63;;;26.80;45.30;;;;;;6301610;28;20032;-76
2023/07/17 01:32:26;;;;;;;9.85;1.40;;;26.80;45.30;;;;;;6317715;28;20658;-76
2023/07/17 01:35:27;;;;;;;5.38;1.55;;;26.80;45.30;;;;;;6334502;28;20038;-76
2023/07/17 01:38:29;;;;;;;5.43;1.95;;;26.70;45.40;;;;;;6318226;28;20100;-76
2023/07/17 01:41:31;;;;;;;1.92;1.50;;;26.70;45.60;;;;;;6317533;28;20020;-75
2023/07/17 01:44:32;;;;;;;3.15;1.45;;;26.70;45.70;;;;;;6318469;28;20043;-75
2023/07/17 01:47:33;;;;;;;3.63;1.45;;;26.70;45.80;;;;;;6321918;28;20071;-76
2023/07/17 01:50:34;;;;;;;11.05;1.83;;;26.70;45.80;;;;;;6302709;28;20024;-76
2023/07/17 01:53:37;;;;;;;3.72;1.70;;;26.70;45.80;;;;;;6302058;28;20049;-75
2023/07/17 01:56:39;;;;;;;3.50;1.45;;;26.70;45.90;;;;;;6325443;28;20024;-75
2023/07/17 01:59:42;;;;;;;4.93;1.42;;;26.60;46.00;;;;;;6338149;28;20036;-74
2023/07/17 02:02:43;;;;;;;5.40;1.65;;;26.60;46.10;;;;;;6318225;28;20520;-75
2023/07/17 02:05:44;;;;;;;8.50;1.65;;;26.60;46.20;;;;;;6336979;28;20154;-76
2023/07/17 02:08:45;;;;;;;8.60;1.83;;;26.50;46.30;;;;;;6319211;28;20032;-76
2023/07/17 02:11:46;;;;;;;3.35;1.52;;;26.50;46.40;;;;;;6326262;28;20055;-77
2023/07/17 02:14:47;;;;;;;3.47;1.65;;;26.50;46.60;;;;;;6338161;28;20032;-76
2023/07/17 02:17:49;;;;;;;3.88;1.63;;;26.60;46.70;;;;;;6342135;28;20019;-76
2023/07/17 02:20:50;;;;;;;4.20;1.38;;;26.60;46.70;;;;;;6341003;28;20024;-76
2023/07/17 02:23:51;;;;;;;2.95;1.50;;;26.60;46.70;;;;;;6319596;28;20078;-76
2023/07/17 02:26:53;;;;;;;5.65;1.63;;;26.60;46.70;;;;;;6337449;28;20170;-75
2023/07/17 02:29:54;;;;;;;4.38;1.55;;;26.60;46.90;;;;;;6304142;28;20025;-76
2023/07/17 02:32:55;;;;;;;4.63;1.50;;;26.50;47.20;;;;;;6291465;28;20141;-76
2023/07/17 02:36:01;;;;;;;1.33;1.23;;;26.50;47.40;;;;;;6308141;28;20025;-76
2023/07/17 02:39:03;;;;;;;6.25;1.98;;;26.40;47.50;;;;;;6291378;28;20511;-76
2023/07/17 02:42:05;;;;;;;5.47;1.65;;;26.40;47.50;;;;;;6280035;28;20024;-76
2023/07/17 02:45:09;;;;;;;1.67;1.30;;;26.30;47.50;;;;;;6291120;28;20040;-74
2023/07/17 02:48:10;;;;;;;3.05;1.35;;;26.30;47.60;;;;;;6293385;28;20054;-75
2023/07/17 02:51:13;;;;;;;1.70;1.55;;;26.30;48.50;;;;;;6317882;28;20044;-75
2023/07/17 02:54:15;;;;;;;4.63;2.08;;;26.20;47.90;;;;;;6315182;28;20028;-74
2023/07/17 02:57:16;;;;;;;7.65;1.92;;;26.20;48.00;;;;;;6315746;28;20036;-76
2023/07/17 03:00:18;;;;;;;4.07;1.80;;;26.10;48.10;;;;;;6316986;28;20047;-75
2023/07/17 03:03:20;;;;;;;3.95;1.58;;;26.10;48.10;;;;;;6315773;28;20060;-76
2023/07/17 03:06:21;;;;;;;2.88;1.60;;;26.10;48.30;;;;;;6298431;28;20035;-76
2023/07/17 03:09:22;;;;;;;2.90;1.50;;;26.00;48.30;;;;;;6315684;28;20126;-76
2023/07/17 03:12:23;;;;;;;4.32;1.80;;;26.00;48.50;;;;;;6297757;28;20028;-75
2023/07/17 03:15:25;;;;;;;8.77;1.77;;;26.00;48.50;;;;;;6316768;28;20043;-75
2023/07/17 03:18:26;;;;;;;4.55;1.70;;;26.00;48.60;;;;;;6298784;28;20514;-75
2023/07/17 03:21:27;;;;;;;2.60;1.60;;;26.00;48.70;;;;;;6315106;28;20039;-75
2023/07/17 03:24:28;;;;;;;2.58;1.40;;;26.00;48.80;;;;;;6315297;28;20138;-75
2023/07/17 03:27:30;;;;;;;3.58;1.80;;;26.00;48.70;;;;;;6331485;28;20020;-76
2023/07/17 03:30:31;;;;;;;4.43;1.90;;;26.00;48.70;;;;;;6316272;28;20043;-76
2023/07/17 03:33:33;;;;;;;8.10;2.20;;;26.00;48.80;;;;;;6314906;28;20036;-75
2023/07/17 03:36:34;;;;;;;6.78;1.95;;;26.00;49.00;;;;;;6315594;28;20107;-75
2023/07/17 03:39:35;;;;;;;2.95;1.45;;;26.00;49.20;;;;;;6332247;28;20372;-75
2023/07/17 03:42:36;;;;;;;4.30;1.67;;;26.00;49.30;;;;;;6314921;28;20040;-75
2023/07/17 03:45:37;;;;;;;2.80;1.70;;;25.90;49.30;;;;;;6306451;28;20090;-76
2023/07/17 03:48:38;;;;;;;2.50;1.60;;;25.80;49.30;;;;;;6307659;28;20028;-76
2023/07/17 03:51:42;;;;;;;3.95;1.85;;;25.80;49.30;;;;;;6289938;28;20029;-76
2023/07/17 03:54:46;;;;;;;3.63;1.70;;;25.80;49.40;;;;;;6289246;28;20130;-76
2023/07/17 03:57:50;;;;;;;7.13;2.15;;;25.70;49.40;;;;;;6289880;28;20036;-76
2023/07/17 04:00:51;;;;;;;2.60;1.55;;;25.70;49.50;;;;;;6323639;28;20616;-75
2023/07/17 04:03:53;;;;;;;1.98;1.58;;;25.70;49.60;;;;;;6311227;28;20457;-76
2023/07/17 04:06:55;;;;;;;3.15;1.80;;;25.70;49.60;;;;;;6307486;28;20124;-76
2023/07/17 04:09:56;;;;;;;6.72;1.98;;;25.70;49.60;;;;;;6322800;28;20028;-76
2023/07/17 04:12:57;;;;;;;4.68;1.52;;;25.70;49.80;;;;;;6288972;28;20377;-77
2023/07/17 04:16:01;;;;;;;2.13;1.58;;;25.70;49.90;;;;;;6294114;28;20499;-75
2023/07/17 04:19:03;;;;;;;11.93;2.13;;;25.70;49.90;;;;;;6293705;28;20095;-76
2023/07/17 04:22:04;;;;;;;3.53;1.83;;;25.70;50.00;;;;;;6278755;28;20378;-75
2023/07/17 04:25:06;;;;;;;4.85;2.28;;;25.70;50.10;;;;;;6297536;28;20038;-76
2023/07/17 04:28:09;;;;;;;6.70;1.98;;;25.70;50.10;;;;;;6297773;28;20089;-77
2023/07/17 04:31:10;;;;;;;4.85;2.10;;;25.70;50.20;;;;;;6314351;28;20464;-77
2023/07/17 04:34:12;;;;;;;2.60;1.60;;;25.60;50.30;;;;;;6314729;28;20024;-75
2023/07/17 04:37:13;;;;;;;5.38;2.05;;;25.60;50.40;;;;;;6331560;28;20040;-77
2023/07/17 04:40:15;;;;;;;5.70;1.98;;;25.60;50.40;;;;;;6314157;28;20385;-76
2023/07/17 04:43:19;;;;;;;4.15;2.03;;;25.50;50.50;;;;;;6314961;28;20135;-76
2023/07/17 04:46:20;;;;;;;4.88;1.92;;;25.50;50.50;;;;;;6313284;28;20035;-76
2023/07/17 04:49:23;;;;;;;5.88;1.77;;;25.50;50.60;;;;;;6274071;28;20715;-77
2023/07/17 04:52:24;;;;;;;3.60;1.90;;;26.40;51.20;;;;;;6314225;28;20024;-76
2023/07/17 04:55:26;;;;;;;4.78;1.75;;;25.50;50.80;;;;;;6313668;28;20242;-76
2023/07/17 04:58:27;;;;;;;7.65;2.05;;;25.50;50.80;;;;;;6312670;28;20047;-76
2023/07/17 05:01:29;;;;;;;4.53;1.70;;;25.50;50.80;;;;;;6284412;28;20032;-76
2023/07/17 05:04:30;;;;;;;4.95;2.25;;;25.40;50.70;;;;;;6315191;28;20081;-75
2023/07/17 05:07:32;;;;;;;3.45;2.00;;;25.40;50.80;;;;;;6313859;28;20455;-75
2023/07/17 05:10:33;;;;;;;4.68;2.20;;;25.40;50.80;;;;;;6330893;28;20028;-75
2023/07/17 05:13:34;;;;;;;5.75;2.17;;;25.40;50.90;;;;;;6312070;28;20479;-78
2023/07/17 05:16:37;;;;;;;5.88;1.42;;;25.50;50.90;;;;;;6294199;28;20123;-75
2023/07/17 05:19:39;;;;;;;4.57;2.22;;;25.50;51.10;;;;;;6313738;28;20028;-77
2023/07/17 05:22:41;;;;;;;4.75;1.92;;;25.50;50.80;;;;;;6314170;28;20039;-76
2023/07/17 05:25:55;;;;;;;7.35;2.17;;;25.50;50.80;;;;;;6288304;28;20037;-76
2023/07/17 05:28:58;;;;;;;7.13;1.98;;;25.50;50.80;;;;;;6311244;28;20034;-77
2023/07/17 05:32:00;;;;;;;4.90;1.70;;;25.50;50.80;;;;;;6312991;28;20071;-75
2023/07/17 05:35:01;;;;;;;3.45;1.85;;;25.50;50.70;;;;;;6314798;28;20092;-77
2023/07/17 05:38:03;;;;;;;4.07;1.90;;;25.50;50.80;;;;;;6296231;28;20046;-76
2023/07/17 05:41:05;;;;;;;4.43;1.92;;;25.50;50.90;;;;;;6275665;28;20158;-77
2023/07/17 05:44:16;;;;;;;6.57;2.05;;;25.60;51.00;;;;;;6294364;28;20020;-76
2023/07/17 05:47:17;;;;;;;3.00;1.80;;;25.60;51.00;;;;;;6276400;28;20032;-76
2023/07/17 05:50:19;;;;;;;4.82;1.63;;;25.60;51.00;;;;;;6293738;28;20039;-75
2023/07/17 05:53:22;;;;;;;4.43;2.00;;;25.70;51.00;;;;;;6275978;28;20314;-77
2023/07/17 05:56:23;;;;;;;3.08;1.90;;;25.70;51.00;;;;;;6276902;28;20404;-75
2023/07/17 05:59:26;;;;;;;5.38;1.75;;;25.80;50.90;;;;;;6275777;28;20032;-77
2023/07/17 06:02:28;;;;;;;6.63;1.98;;;25.90;50.80;;;;;;6276288;28;20028;-77
2023/07/17 06:05:29;;;;;;;12.18;2.03;;;26.00;50.60;;;;;;6309872;28;20024;-75
2023/07/17 06:08:31;;;;;;;5.32;2.20;;;25.50;50.10;;;;;;6275692;28;20036;-76
2023/07/17 06:11:33;;;;;;;6.88;2.47;;;26.20;50.20;;;;;;6304943;28;20487;-76
2023/07/17 06:14:34;;;;;;;4.50;2.05;;;26.40;50.10;;;;;;6317806;28;20474;-75
2023/07/17 06:17:37;;;;;;;4.32;1.70;;;26.50;50.00;;;;;;6334927;28;20031;-77
2023/07/17 06:20:39;;;;;;;4.30;1.98;;;26.60;49.80;;;;;;6316941;28;20031;-77
2023/07/17 06:23:40;;;;;;;4.40;2.17;;;26.70;49.70;;;;;;6308918;28;20025;-76
2023/07/17 06:26:42;;;;;;;5.45;2.35;;;26.70;49.50;;;;;;6276520;28;20054;-78
2023/07/17 06:29:44;;;;;;;4.35;1.90;;;26.80;49.40;;;;;;6317037;28;20035;-77
2023/07/17 06:32:49;;;;;;;7.65;1.88;;;27.00;49.30;;;;;;6316456;28;20058;-76
2023/07/17 06:35:51;;;;;;;7.72;2.08;;;26.30;48.60;;;;;;6317346;28;20159;-76
2023/07/17 06:38:53;;;;;;;4.03;1.85;;;27.20;48.90;;;;;;6317543;28;20096;-76
2023/07/17 06:41:56;;;;;;;5.88;2.20;;;27.20;48.60;;;;;;6332969;28;20321;-76
2023/07/17 06:44:57;;;;;;;6.07;2.30;;;27.30;48.40;;;;;;6316421;28;20499;-76
2023/07/17 06:47:58;;;;;;;2.42;1.80;;;27.40;48.30;;;;;;6316260;28;20028;-78
2023/07/17 06:51:00;;;;;;;4.20;1.83;;;27.40;48.20;;;;;;6317966;28;20058;-77
2023/07/17 06:54:02;;;;;;;6.43;1.92;;;27.40;47.90;;;;;;6316175;28;20044;-75
2023/07/17 06:57:03;;;;;;;8.95;1.95;;;27.50;48.00;;;;;;6317027;28;20348;-76
2023/07/17 07:00:05;;;;;;;5.95;2.42;;;27.50;47.90;;;;;;6298075;28;20448;-75
2023/07/17 07:03:06;;;;;;;7.13;1.90;;;27.50;47.90;;;;;;6298222;28;20028;-76
2023/07/17 07:06:08;;;;;;;5.03;1.85;;;27.60;47.90;;;;;;6315724;28;20564;-75
2023/07/17 07:09:08;;;;;;;3.45;1.83;;;27.60;47.80;;;;;;6298263;28;20055;-77
2023/07/17 07:12:10;;;;;;;4.88;2.30;;;27.70;47.70;;;;;;6315880;28;20043;-76
2023/07/17 07:15:12;;;;;;;3.72;2.08;;;27.70;47.50;;;;;;6315683;28;20031;-77
2023/07/17 07:18:14;;;;;;;4.47;2.38;;;27.70;47.20;;;;;;6315276;28;20616;-76
2023/07/17 07:21:16;;;;;;;6.95;2.00;;;27.80;47.00;;;;;;6316138;28;20620;-77
2023/07/17 07:24:18;;;;;;;4.65;1.80;;;27.90;46.80;;;;;;6314817;28;20028;-76
2023/07/17 07:27:21;;;;;;;3.85;1.95;;;27.90;46.60;;;;;;6296846;28;20490;-77
2023/07/17 07:30:21;;;;;;;4.55;2.05;;;28.10;46.50;;;;;;6314257;28;20424;-75
2023/07/17 07:33:23;;;;;;;4.75;2.22;;;28.10;46.50;;;;;;6331622;28;20085;-77
2023/07/17 07:36:28;;;;;;;5.60;2.20;;;28.10;46.50;;;;;;6332053;28;20364;-77
2023/07/17 07:39:29;;;;;;;9.85;2.15;;;28.00;46.40;;;;;;6314144;28;20648;-77
2023/07/17 07:42:32;;;;;;;10.65;2.75;;;28.00;46.50;;;;;;6315690;28;20659;-76
2023/07/17 07:45:35;;;;;;;7.22;2.10;;;28.00;46.50;;;;;;6310362;28;20020;-76
2023/07/17 07:48:36;;;;;;;5.40;1.52;;;28.10;46.40;;;;;;6306069;28;20031;-78
2023/07/17 07:51:37;;;;;;;3.78;1.75;;;28.10;46.10;;;;;;6311218;28;20183;-77
2023/07/17 07:54:40;;;;;;;7.63;2.20;;;28.20;45.70;;;;;;6299905;28;20369;-77
2023/07/17 07:57:41;;;;;;;6.18;1.90;;;28.40;45.50;;;;;;6289894;28;20396;-76
2023/07/17 08:00:42;;;;;;;8.07;1.98;;;28.50;45.80;;;;;;6288499;28;20036;-76
2023/07/17 08:03:45;;;;;;;11.93;2.25;;;28.60;44.90;;;;;;6289503;28;20039;-77
2023/07/17 08:06:46;;;;;;;7.18;1.90;;;28.70;44.70;;;;;;6289109;28;20116;-78
2023/07/17 08:09:48;;;;;;;4.32;1.60;;;28.70;44.60;;;;;;6288115;28;20099;-76
2023/07/17 08:12:50;;;;;;;4.35;1.60;;;28.70;44.50;;;;;;6287810;28;20025;-77
2023/07/17 08:15:53;;;;;;;7.65;1.77;;;28.70;44.40;;;;;;6272271;28;20055;-77
2023/07/17 08:18:54;;;;;;;3.10;1.70;;;28.80;44.20;;;;;;6289979;28;20028;-76
2023/07/17 08:21:56;;;;;;;3.38;1.42;;;28.90;43.90;;;;;;6294143;28;20107;-76
2023/07/17 08:24:57;;;;;;;7.30;1.92;;;29.00;43.60;;;;;;6297099;28;20046;-76
2023/07/17 08:27:59;;;;;;;9.45;2.50;;;29.20;43.40;;;;;;6313008;28;20375;-77
2023/07/17 08:31:01;;;;;;;6.80;2.03;;;29.30;43.10;;;;;;6315040;28;20409;-77
2023/07/17 08:34:03;;;;;;;3.33;1.48;;;29.40;42.80;;;;;;6313435;28;20094;-76
2023/07/17 08:37:05;;;;;;;10.68;2.25;;;29.50;42.60;;;;;;6313682;28;20046;-75
2023/07/17 08:40:09;;;;;;;3.15;1.48;;;29.60;42.30;;;;;;6330250;28;20085;-77
2023/07/17 08:43:11;;;;;;;5.90;2.40;;;29.70;42.00;;;;;;6312546;28;20083;-78
2023/07/17 08:46:13;;;;;;;9.20;2.00;;;29.70;41.80;;;;;;6314292;28;20123;-75
2023/07/17 08:49:16;;;;;;;3.92;1.70;;;29.70;41.60;;;;;;6296110;28;20051;-76
2023/07/17 08:52:19;;;;;;;6.18;1.95;;;29.80;41.60;;;;;;6312360;28;20028;-77
2023/07/17 08:55:23;;;;;;;2.95;1.70;;;29.90;41.50;;;;;;6314045;28;20128;-76
2023/07/17 08:58:28;;;;;;;9.65;1.98;;;29.90;41.30;;;;;;6314284;28;20021;-79
2023/07/17 09:01:29;;;;;;;5.43;1.73;;;30.00;41.30;;;;;;6295627;28;20028;-78
2023/07/17 09:04:31;;;;;;;4.53;1.70;;;30.10;41.30;;;;;;6296080;28;20460;-76
2023/07/17 09:07:32;;;;;;;6.03;2.10;;;30.10;41.20;;;;;;6313512;28;20047;-77
2023/07/17 09:10:35;;;;;;;2.00;1.42;;;30.10;41.20;;;;;;6315607;28;20032;-77
2023/07/17 09:13:37;;;;;;;5.00;2.20;;;30.10;41.20;;;;;;6317768;28;20039;-77
2023/07/17 09:16:40;;;;;;;9.10;1.73;;;30.10;41.20;;;;;;6318311;28;20024;-77
2023/07/17 09:19:40;;;;;;;4.30;1.83;;;30.20;41.10;;;;;;6301565;28;20123;-76
2023/07/17 09:22:42;;;;;;;6.78;1.92;;;30.30;41.00;;;;;;6318372;28;20329;-76
2023/07/17 09:25:49;;;;;;;5.35;1.73;;;30.40;41.00;;;;;;6317068;28;20415;-78
2023/07/17 09:28:56;;;;;;;3.25;1.67;;;30.40;40.90;;;;;;6317682;28;20046;-76
2023/07/17 09:32:12;;;;;;;5.75;2.15;;;30.60;40.80;;;;;;6303402;28;20622;-76
2023/07/17 09:35:14;;;;;;;5.82;1.77;;;30.70;40.60;;;;;;6292111;28;20040;-76
2023/07/17 09:38:16;;;;;;;2.95;1.80;;;30.80;40.60;;;;;;6298343;28;20040;-76
2023/07/17 09:41:27;;;;;;;4.00;2.17;;;30.80;40.30;;;;;;6316379;28;20028;-76
2023/07/17 09:44:30;;;;;;;3.22;1.55;;;30.90;40.20;;;;;;6318822;28;20166;-76
2023/07/17 09:47:32;;;;;;;8.00;2.15;;;31.00;40.00;;;;;;6317211;28;20036;-75
2023/07/17 09:50:36;;;;;;;4.80;1.73;;;31.00;39.90;;;;;;6300637;28;20039;-76
2023/07/17 09:53:39;;;;;;;4.70;1.50;;;31.00;39.80;;;;;;6317935;28;20036;-76
2023/07/17 09:56:41;;;;;;;3.75;1.80;;;31.10;39.80;;;;;;6317481;28;20035;-77
2023/07/17 09:59:46;;;;;;;7.65;2.05;;;31.10;39.70;;;;;;6317395;28;20031;-76
2023/07/17 10:03:01;;;;;;;2.20;1.52;;;31.10;39.70;;;;;;6333698;28;20072;-75
2023/07/17 10:06:04;;;;;;;3.47;1.98;;;31.10;39.70;;;;;;6291084;28;20645;-76
2023/07/17 10:09:07;;;;;;;6.80;2.00;;;31.00;39.80;;;;;;6291498;28;20451;-77
2023/07/17 10:12:09;;;;;;;4.47;2.13;;;30.90;39.90;;;;;;6274541;28;20500;-76
2023/07/17 10:15:11;;;;;;;2.47;1.70;;;30.90;40.00;;;;;;6291103;28;20452;-77
2023/07/17 10:18:12;;;;;;;6.38;1.92;;;30.90;40.00;;;;;;6276585;28;20642;-76
2023/07/17 10:21:15;;;;;;;9.52;1.98;;;30.90;39.90;;;;;;6299284;28;20071;-76
2023/07/17 10:24:16;;;;;;;3.15;1.75;;;31.00;40.10;;;;;;6299590;28;20368;-76
2023/07/17 10:27:40;;;;;;;4.70;2.10;;;31.00;40.10;;;;;;6316742;28;20032;-78
2023/07/17 10:30:49;;;;;;;6.70;1.77;;;31.00;40.10;;;;;;6307920;28;20064;-77
2023/07/17 10:33:59;;;;;;;7.68;2.00;;;31.00;40.10;;;;;;6300015;28;20049;-77
2023/07/17 10:37:00;;;;;;;3.33;1.63;;;31.00;40.10;;;;;;6300063;28;20069;-77
2023/07/17 10:40:28;;;;;;;9.75;2.10;;;31.00;40.00;;;;;;6318181;28;20051;-78
2023/07/17 10:43:30;;;;;;;7.88;3.05;;;31.10;40.10;;;;;;6316600;28;20028;-77
2023/07/17 10:46:34;;;;;;;8.23;3.97;;;31.10;40.00;;;;;;6316654;28;20052;-77
2023/07/17 10:49:36;;;;;;;7.10;2.40;;;31.20;40.00;;;;;;6316838;28;20032;-75
2023/07/17 10:52:37;;;;;;;13.27;2.70;;;31.30;39.90;;;;;;6298869;28;20158;-77
2023/07/17 10:55:39;;;;;;;6.90;1.60;;;31.30;39.80;;;;;;6316387;28;20036;-78
2023/07/17 10:58:48;;;;;;;6.53;2.58;;;31.50;39.70;;;;;;6316190;28;20040;-78
2023/07/17 11:01:49;;;;;;;7.20;1.90;;;31.50;39.60;;;;;;6316205;28;20395;-77
2023/07/17 11:04:58;;;;;;;4.90;2.05;;;31.60;39.40;;;;;;6299023;28;20029;-78
2023/07/17 11:07:59;;;;;;;4.50;2.08;;;31.70;39.40;;;;;;6299681;28;20115;-77
2023/07/17 11:11:00;;;;;;;5.07;1.95;;;32.20;38.70;;;;;;6298594;28;20031;-77
2023/07/17 11:14:02;;;;;;;7.75;2.63;;;33.00;37.60;;;;;;6315958;28;20032;-77
2023/07/17 11:17:03;;;;;;;6.50;2.20;;;33.80;37.00;;;;;;6299338;28;20036;-77
2023/07/17 11:20:05;;;;;;;14.05;2.08;;;34.50;35.20;;;;;;6315558;28;20574;-76
2023/07/17 11:23:10;;;;;;;5.88;1.80;;;35.00;34.20;;;;;;6297770;28;20032;-77
2023/07/17 11:26:12;;;;;;;4.18;2.10;;;35.40;33.40;;;;;;6291104;28;20400;-77
2023/07/17 11:29:15;;;;;;;14.30;2.08;;;35.80;32.90;;;;;;6314809;28;20053;-77
2023/07/17 11:32:19;;;;;;;4.90;2.00;;;36.30;32.30;;;;;;6297506;28;20031;-76
2023/07/17 11:35:21;;;;;;;5.57;1.80;;;36.60;31.80;;;;;;6314668;28;20511;-78
2023/07/17 11:38:22;;;;;;;3.13;1.90;;;37.00;31.40;;;;;;6314617;28;20039;-75
2023/07/17 11:41:25;;;;;;;3.90;1.48;;;37.30;31.00;;;;;;6330844;28;20062;-78
2023/07/17 11:44:29;;;;;;;4.40;1.80;;;37.50;30.70;;;;;;6297797;28;20198;-77
2023/07/17 11:47:30;;;;;;;6.22;1.80;;;37.80;30.50;;;;;;6297735;28;20502;-78
2023/07/17 11:50:31;;;;;;;3.50;2.45;;;38.10;30.10;;;;;;6314352;28;20031;-78
2023/07/17 11:53:37;;;;;;;7.30;2.25;;;38.50;30.00;;;;;;6315707;28;20468;-78
2023/07/17 11:56:41;;;;;;;2.15;1.80;;;38.80;29.70;;;;;;6298693;28;20669;-79
2023/07/17 11:59:46;;;;;;;2.53;1.50;;;39.10;29.40;;;;;;6316641;28;20058;-78
2023/07/17 12:02:49;;;;;;;3.47;1.98;;;39.40;29.20;;;;;;6297499;28;20502;-78
2023/07/17 12:05:50;;;;;;;4.18;1.95;;;39.80;28.80;;;;;;6317395;28;20142;-77
2023/07/17 12:08:52;;;;;;;4.03;1.67;;;40.00;28.50;;;;;;6289968;28;20032;-77
2023/07/17 12:11:53;;;;;;;3.72;1.95;;;40.00;29.00;;;;;;6289826;28;20036;-79
2023/07/17 12:14:55;;;;;;;3.15;1.88;;;40.10;28.30;;;;;;6273302;28;20134;-77
2023/07/17 12:17:57;;;;;;;5.78;2.28;;;40.40;28.10;;;;;;6272912;28;20039;-78
2023/07/17 12:20:59;;;;;;;4.32;1.92;;;40.50;27.80;;;;;;6290194;28;20032;-76
2023/07/17 12:24:00;;;;;;;4.40;2.17;;;40.70;27.70;;;;;;6295817;28;20071;-78
2023/07/17 12:27:02;;;;;;;6.32;1.90;;;40.80;27.50;;;;;;6314114;28;20024;-75
2023/07/17 12:30:03;;;;;;;8.20;2.17;;;41.00;27.30;;;;;;6297797;28;20043;-78
2023/07/17 12:33:15;;;;;;;7.88;2.60;;;41.10;27.10;;;;;;6297409;28;20062;-79
2023/07/17 12:36:16;;;;;;;3.25;1.80;;;41.00;27.10;;;;;;6297748;28;20038;-78
2023/07/17 12:39:18;;;;;;;3.45;2.20;;;41.20;26.90;;;;;;6314097;28;20077;-80
2023/07/17 12:42:20;;;;;;;7.97;2.00;;;41.20;26.70;;;;;;6313789;28;20028;-75
2023/07/17 12:45:21;;;;;;;6.88;1.98;;;41.30;26.60;;;;;;6319171;28;20111;-78
2023/07/17 12:48:23;;;;;;;3.83;2.30;;;41.10;26.50;;;;;;6336170;28;20047;-80
2023/07/17 12:51:24;;;;;;;5.47;1.95;;;41.10;26.40;;;;;;6302238;28;20123;-79
2023/07/17 12:54:27;;;;;;;7.78;2.63;;;41.20;26.40;;;;;;6319395;28;20131;-79
2023/07/17 12:57:29;;;;;;;11.45;2.40;;;41.40;26.30;;;;;;6320128;28;20082;-78
2023/07/17 13:00:30;;;;;;;6.50;2.33;;;41.60;25.90;;;;;;6319482;28;20057;-77
2023/07/17 13:03:33;;;;;;;9.93;2.22;;;41.80;25.70;;;;;;6319976;28;20028;-78
2023/07/17 13:06:37;;;;;;;3.65;2.28;;;41.90;25.50;;;;;;6320086;28;20038;-77
2023/07/17 13:09:38;;;;;;;4.50;2.13;;;41.80;25.50;;;;;;6302070;28;20039;-80
2023/07/17 13:12:41;;;;;;;4.95;1.92;;;42.00;25.30;;;;;;6335883;28;20031;-78
2023/07/17 13:15:42;;;;;;;3.92;2.08;;;42.20;25.10;;;;;;6319075;28;20131;-80
2023/07/17 13:18:43;;;;;;;7.53;2.75;;;42.60;24.90;;;;;;6320446;28;20170;-80
2023/07/17 13:21:45;;;;;;;7.00;2.20;;;42.70;24.60;;;;;;6336193;28;20035;-79
2023/07/17 13:24:46;;;;;;;4.95;2.47;;;42.90;24.50;;;;;;6301626;28;20043;-78
2023/07/17 13:27:48;;;;;;;6.00;2.20;;;43.10;24.20;;;;;;6335717;28;20090;-78
2023/07/17 13:30:52;;;;;;;3.85;1.67;;;43.40;24.00;;;;;;6321561;28;20027;-79
2023/07/17 13:33:56;;;;;;;3.63;1.92;;;43.90;23.70;;;;;;6321290;28;20096;-79
2023/07/17 13:36:58;;;;;;;5.43;1.98;;;44.40;23.20;;;;;;6322533;28;20080;-78
2023/07/17 13:40:04;;;;;;;7.60;1.92;;;44.80;22.90;;;;;;6310786;28;20025;-78
2023/07/17 13:43:05;;;;;;;3.08;2.30;;;45.10;22.60;;;;;;6318877;28;20043;-78
2023/07/17 13:46:07;;;;;;;6.97;2.15;;;45.40;22.40;;;;;;6315660;28;20451;-79
2023/07/17 13:49:12;;;;;;;4.13;2.33;;;45.80;22.00;;;;;;6305536;28;20034;-79
2023/07/17 13:52:14;;;;;;;9.77;2.40;;;46.10;21.90;;;;;;6317610;28;20102;-77
2023/07/17 13:55:16;;;;;;;9.48;2.63;;;46.30;21.60;;;;;;6300404;28;20025;-79
2023/07/17 13:58:18;;;;;;;2.72;1.92;;;46.40;21.50;;;;;;6301785;28;20047;-77
2023/07/17 14:01:21;;;;;;;5.88;2.15;;;46.30;21.50;;;;;;6318859;28;20029;-80
2023/07/17 14:04:23;;;;;;;11.77;2.65;;;46.40;21.60;;;;;;6318555;28;20036;-80
2023/07/17 14:07:25;;;;;;;5.95;2.72;;;46.80;21.40;;;;;;6318708;28;20036;-77
2023/07/17 14:10:29;;;;;;;10.43;2.50;;;47.10;21.10;;;;;;6319089;28;20039;-77
2023/07/17 14:13:31;;;;;;;6.95;2.72;;;47.30;20.90;;;;;;6335963;28;20028;-78
2023/07/17 14:16:32;;;;;;;5.72;2.47;;;47.50;20.80;;;;;;6303312;28;20027;-76
2023/07/17 14:19:34;;;;;;;5.72;2.75;;;47.70;20.50;;;;;;6306203;28;20021;-79
2023/07/17 14:22:35;;;;;;;5.88;2.10;;;47.80;20.40;;;;;;6328582;28;20125;-78
2023/07/17 14:25:37;;;;;;;11.48;2.30;;;47.80;20.40;;;;;;6317733;28;20127;-79
2023/07/17 14:28:39;;;;;;;3.63;2.33;;;47.70;20.40;;;;;;6294090;28;20591;-78
2023/07/17 14:31:40;;;;;;;5.25;2.60;;;47.40;20.40;;;;;;6294493;28;20048;-76
2023/07/17 14:34:42;;;;;;;3.83;2.20;;;47.30;20.40;;;;;;6293373;28;20560;-78
2023/07/17 14:37:43;;;;;;;5.78;2.83;;;47.00;20.50;;;;;;6303462;28;20149;-80
2023/07/17 14:40:45;;;;;;;6.50;2.35;;;46.60;20.80;;;;;;6317220;28;20024;-78
2023/07/17 14:43:46;;;;;;;4.38;2.60;;;46.70;20.80;;;;;;6316554;28;20043;-78
2023/07/17 14:46:48;;;;;;;5.78;2.33;;;46.90;21.30;;;;;;6300854;28;20702;-78
2023/07/17 14:49:50;;;;;;;14.07;2.80;;;47.30;20.50;;;;;;6317022;28;20032;-79
2023/07/17 14:52:52;;;;;;;5.75;2.15;;;47.40;20.40;;;;;;6320966;28;20434;-77
2023/07/17 14:55:53;;;;;;;4.50;2.05;;;47.40;20.30;;;;;;6318349;28;20093;-78
2023/07/17 14:58:53;;;;;;;5.60;2.38;;;47.20;20.40;;;;;;6330284;28;20040;-80
2023/07/17 15:01:54;;;;;;;8.02;2.40;;;47.10;20.60;;;;;;6326265;28;20020;-81
2023/07/17 15:04:56;;;;;;;4.88;2.35;;;47.30;20.40;;;;;;6308362;28;20063;-78
2023/07/17 15:07:58;;;;;;;3.97;2.05;;;47.30;20.30;;;;;;6332544;28;20032;-79
2023/07/17 15:10:59;;;;;;;5.55;2.20;;;47.20;20.30;;;;;;6315849;28;20042;-82
2023/07/17 15:14:00;;;;;;;11.93;2.40;;;46.50;20.80;;;;;;6317800;28;20025;-76
2023/07/17 15:17:00;;;;;;;5.38;2.55;;;45.30;21.70;;;;;;6285519;28;20025;-77
2023/07/17 15:20:02;;;;;;;6.25;2.83;;;44.10;22.60;;;;;;6311272;28;20542;-78
2023/07/17 15:23:04;;;;;;;3.67;2.33;;;42.90;23.60;;;;;;6321699;28;20479;-78
2023/07/17 15:26:06;;;;;;;5.40;2.83;;;42.20;24.30;;;;;;6306956;28;20115;-81
2023/07/17 15:29:09;;;;;;;6.60;2.85;;;42.20;24.20;;;;;;6314580;28;20076;-79
2023/07/17 15:32:10;;;;;;;13.90;2.50;;;42.50;24.00;;;;;;6315477;28;20111;-78
2023/07/17 15:35:13;;;;;;;4.15;2.33;;;42.60;23.90;;;;;;6315379;28;20077;-80
2023/07/17 15:38:13;;;;;;;6.93;2.60;;;42.80;23.90;;;;;;6298595;28;20119;-77
2023/07/17 15:41:15;;;;;;;4.70;2.58;;;43.00;23.80;;;;;;6314615;28;20096;-77
2023/07/17 15:44:16;;;;;;;4.97;2.40;;;43.40;23.60;;;;;;6314418;28;20561;-77
2023/07/17 15:47:18;;;;;;;5.90;2.60;;;43.90;23.10;;;;;;6314521;28;20040;-76